首页
METAR-TAF:

METAR-TAF

机场 :

安托法加斯塔, 智利

纬度: 23-26S, 经度: 070-26W, 海拔: 135米

当前天气观测

该预报发布于16分钟前的09:00 UTC
风速3节,风向,在东南西南之间变化
温度 13°C
湿度 82%
气压 1015 hPa
能见度10公里或以上
阴天层高于1600英尺

METAR: SCFA 300900Z 17003KT 130V220 9999 OVC016 13/10 Q1015 NOSIG

时间: 05:16 (09:16 UTC)

预报

该预报发布于4小时和54分钟前的04:22 UTC
预报有效从30日的 06点(UTC)到 31日的 06点(UTC)
风速4节,风向南转西南
能见度10公里或以上
阴天层高于1200英尺
成为
从 30日的 12点(UTC)到 30日的 14点(UTC)
阴天层高于2000英尺
成为
从 30日的 15点(UTC)到 30日的 17点(UTC)
风速12节,风向南转西南
少量云层高于2000英尺
成为
从 30日的 22点(UTC)到 31日的 00点(UTC)
风速4节,风向南转西南
多云层高于1800英尺

TAF: SCFA 300422Z 3006/3106 20004KT 9999 OVC012 TN14/3010Z TX16/3018Z BECMG 3012/3014 OVC020 BECMG 3015/3017 20012KT FEW020 BECMG 3022/3100 20004KT BKN018

超过4000个机场的气象观测和天气预报(METAR&TAF报告)。

可查询的气象台以黄色和红色小点在地图上表示。

将鼠标移到小点上方,可查看气象台名称。

然后点击查看天气观测和预报。

如需切换地图:点击带黑十字的绿色按钮放大地图;点击带横线的绿色按钮缩小地图;或者点击绿色箭头查看邻近地区的地图。


METAR-TAF: